< < Back
Terminal Aerodrome Forecast


Current Version              Previous Versions:   1  2  3  4  5  6  7  8  9  

Terminal Aerodrome Forecast

632
FTUS42 KTAE 251700
TAFTLH
TAF
KTLH 251720Z 2518/2618 34005KT P6SM SKC=



Latest METAR

393
SAUS80 KWBC 260000 RRB
MTRTLH
METAR KTLH 252353Z 00000KT 10SM CLR 18/09 A3000 RMK AO2 SLP159 T01780089
10272 20178 53006 $


USA.gov is the U.S. government's official web portal to all federal, state and local government web resources and services.